createdAt,value
2022-12-25T00:01:19.103Z,4.07
2022-12-25T00:03:46.882Z,4.03
2022-12-25T00:06:21.876Z,4.05
2022-12-25T00:08:52.069Z,4.05
2022-12-25T00:11:25.423Z,4.10
2022-12-25T00:13:53.282Z,4.08
2022-12-25T00:16:26.527Z,4.12
2022-12-25T00:18:55.146Z,4.13
2022-12-25T00:21:23.407Z,4.09
2022-12-25T00:24:01.718Z,4.09
2022-12-25T00:26:29.441Z,4.09
2022-12-25T00:28:59.843Z,4.14
2022-12-25T00:31:28.362Z,4.21
2022-12-25T00:33:56.087Z,4.26
2022-12-25T00:36:24.221Z,4.44
2022-12-25T00:38:53.805Z,4.50
2022-12-25T00:41:39.508Z,4.52
2022-12-25T00:44:10.279Z,4.49
2022-12-25T00:46:38.025Z,4.49
2022-12-25T00:49:05.948Z,4.47
2022-12-25T00:51:33.813Z,4.45
2022-12-25T00:54:01.551Z,4.48
2022-12-25T00:56:29.334Z,4.56
2022-12-25T00:58:57.176Z,4.57
2022-12-25T01:01:24.837Z,4.60
2022-12-25T01:03:54.796Z,4.61
2022-12-25T01:06:22.434Z,4.59
2022-12-25T01:09:04.038Z,4.58
2022-12-25T01:11:32.742Z,4.55
2022-12-25T01:14:03.471Z,4.52
2022-12-25T01:16:31.582Z,4.51
2022-12-25T01:18:59.281Z,4.47
2022-12-25T01:21:27.130Z,4.45
2022-12-25T01:23:55.418Z,4.44
2022-12-25T01:26:27.301Z,4.48
2022-12-25T01:28:55.464Z,4.48
2022-12-25T01:31:25.227Z,4.52
2022-12-25T01:33:54.368Z,4.56
2022-12-25T01:36:26.841Z,4.59
2022-12-25T01:38:55.641Z,4.64
2022-12-25T01:41:26.442Z,4.63
2022-12-25T01:44:00.307Z,4.60
2022-12-25T01:46:28.137Z,4.59
2022-12-25T01:49:01.890Z,4.60
2022-12-25T01:51:37.295Z,4.58
2022-12-25T01:54:11.727Z,4.57
2022-12-25T01:56:41.491Z,4.55
2022-12-25T01:59:10.183Z,4.55
2022-12-25T02:01:37.989Z,4.51
2022-12-25T02:04:19.145Z,4.51
2022-12-25T02:06:49.782Z,4.47
2022-12-25T02:09:17.509Z,4.44
2022-12-25T02:11:58.643Z,4.41
2022-12-25T02:14:28.875Z,4.43
2022-12-25T02:17:03.571Z,4.46
2022-12-25T02:19:40.488Z,4.43
2022-12-25T02:22:16.148Z,4.37
2022-12-25T02:24:50.955Z,4.32
2022-12-25T02:27:56.755Z,4.36
2022-12-25T02:30:24.435Z,4.36
2022-12-25T02:33:28.085Z,4.34
2022-12-25T02:35:58.065Z,4.35
2022-12-25T02:38:37.703Z,4.41
2022-12-25T02:41:14.864Z,4.40
2022-12-25T02:44:10.471Z,4.42
2022-12-25T02:46:58.090Z,4.44
2022-12-25T02:49:45.222Z,4.39
2022-12-25T02:52:34.735Z,4.36
2022-12-25T02:55:31.495Z,4.33
2022-12-25T02:58:19.377Z,4.33
2022-12-25T03:01:12.542Z,4.32
2022-12-25T03:03:59.514Z,4.39
2022-12-25T03:06:46.601Z,4.40
2022-12-25T03:09:41.533Z,4.43
2022-12-25T03:12:26.145Z,4.47
2022-12-25T03:15:10.495Z,4.46
2022-12-25T03:17:38.151Z,4.45
2022-12-25T03:20:24.609Z,4.42
2022-12-25T03:23:10.547Z,4.42
2022-12-25T03:25:55.496Z,4.40
2022-12-25T03:28:23.166Z,4.39
2022-12-25T03:31:15.020Z,4.33
2022-12-25T03:34:07.451Z,4.31
2022-12-25T03:36:40.455Z,4.28
2022-12-25T03:39:37.357Z,4.22
2022-12-25T03:42:25.479Z,4.16
2022-12-25T03:45:33.813Z,4.12
2022-12-25T03:48:19.146Z,4.08
2022-12-25T03:51:09.944Z,4.04
2022-12-25T03:54:16.436Z,4.05
2022-12-25T03:57:02.377Z,4.08
2022-12-25T03:59:47.631Z,4.14
2022-12-25T04:02:32.690Z,4.16
2022-12-25T04:05:17.939Z,4.18
2022-12-25T04:08:02.312Z,4.26
2022-12-25T04:10:47.312Z,4.25
2022-12-25T04:13:33.747Z,4.26
2022-12-25T04:16:18.879Z,4.32
2022-12-25T04:19:04.017Z,4.40
2022-12-25T04:21:51.444Z,4.48
2022-12-25T04:24:39.201Z,4.51
2022-12-25T04:27:24.094Z,4.61
2022-12-25T04:30:09.005Z,4.70
2022-12-25T04:32:54.239Z,4.72
2022-12-25T04:35:39.042Z,4.74
2022-12-25T04:38:08.918Z,4.76
2022-12-25T04:40:39.135Z,4.76
2022-12-25T04:43:10.116Z,4.77
2022-12-25T04:45:37.680Z,4.70
2022-12-25T04:48:05.647Z,4.62
2022-12-25T04:50:33.233Z,4.58
2022-12-25T04:53:00.842Z,4.53
2022-12-25T04:55:28.443Z,4.48
2022-12-25T04:57:56.077Z,4.45
2022-12-25T05:00:23.696Z,4.44
2022-12-25T05:02:51.524Z,4.42
2022-12-25T05:05:21.347Z,4.40
2022-12-25T05:07:51.416Z,4.36
2022-12-25T05:10:19.211Z,4.37
2022-12-25T05:12:46.871Z,4.39
2022-12-25T05:15:14.612Z,4.43
2022-12-25T05:17:42.167Z,4.26
2022-12-25T05:20:12.265Z,4.10
2022-12-25T05:22:39.892Z,4.00
2022-12-25T05:25:08.014Z,3.87
2022-12-25T05:27:37.870Z,3.80
2022-12-25T05:30:10.336Z,3.75
2022-12-25T05:32:38.001Z,3.83
2022-12-25T05:35:06.537Z,3.77
2022-12-25T05:37:34.104Z,3.71
2022-12-25T05:40:04.027Z,3.70
2022-12-25T05:42:31.722Z,3.63
2022-12-25T05:45:01.721Z,3.60
2022-12-25T05:47:31.422Z,3.58
2022-12-25T05:49:59.003Z,3.56
2022-12-25T05:52:26.603Z,3.52
2022-12-25T05:54:54.208Z,3.55
2022-12-25T05:57:21.788Z,3.57
2022-12-25T05:59:49.361Z,3.53
2022-12-25T06:02:17.172Z,3.48
2022-12-25T06:04:47.144Z,3.47
2022-12-25T06:07:14.852Z,3.44
2022-12-25T06:09:42.443Z,3.38
2022-12-25T06:12:14.915Z,3.43
2022-12-25T06:14:42.656Z,3.40
2022-12-25T06:17:12.605Z,3.32
2022-12-25T06:19:40.336Z,3.26
2022-12-25T06:22:07.975Z,3.20
2022-12-25T06:24:36.048Z,3.18
2022-12-25T06:27:03.684Z,3.09
2022-12-25T06:29:31.288Z,3.03
2022-12-25T06:31:59.086Z,2.97
2022-12-25T06:34:27.197Z,2.91
2022-12-25T06:36:56.442Z,2.97
2022-12-25T06:39:27.634Z,2.95
2022-12-25T06:41:55.744Z,2.91
2022-12-25T06:44:23.410Z,2.90
2022-12-25T06:46:51.037Z,2.89
2022-12-25T06:49:18.983Z,2.83
2022-12-25T06:51:46.651Z,2.88
2022-12-25T06:54:16.809Z,2.89
2022-12-25T06:56:44.445Z,2.91
2022-12-25T06:59:12.340Z,2.88
2022-12-25T07:01:52.106Z,2.85
2022-12-25T07:04:26.375Z,2.89
2022-12-25T07:06:54.144Z,3.31
2022-12-25T07:09:21.743Z,3.35
2022-12-25T07:11:49.405Z,3.31
2022-12-25T07:14:24.423Z,3.45
2022-12-25T07:16:54.678Z,3.31
2022-12-25T07:19:22.398Z,3.41
2022-12-25T07:21:52.395Z,3.42
2022-12-25T07:24:23.463Z,3.52
2022-12-25T07:26:51.980Z,3.49
2022-12-25T07:29:20.489Z,3.49
2022-12-25T07:31:48.659Z,3.48
2022-12-25T07:34:21.201Z,3.50
2022-12-25T07:36:48.882Z,3.80
2022-12-25T07:39:19.601Z,4.24
2022-12-25T07:41:47.205Z,4.49
2022-12-25T07:44:15.139Z,4.97
2022-12-25T07:46:42.848Z,5.55
2022-12-25T07:49:11.346Z,6.15
2022-12-25T07:51:39.143Z,6.35
2022-12-25T07:54:06.833Z,6.21
2022-12-25T07:56:34.602Z,5.95
2022-12-25T07:59:02.317Z,5.84
2022-12-25T08:01:30.535Z,6.09
2022-12-25T08:04:00.850Z,6.74
2022-12-25T08:06:32.591Z,6.66
2022-12-25T08:09:06.605Z,6.69
2022-12-25T08:11:34.321Z,6.68
2022-12-25T08:14:02.155Z,6.62
2022-12-25T08:16:31.879Z,6.64
2022-12-25T08:18:59.854Z,6.68
2022-12-25T08:21:27.656Z,6.66
2022-12-25T08:23:55.429Z,6.63
2022-12-25T08:26:25.418Z,6.57
2022-12-25T08:28:53.105Z,6.59
2022-12-25T08:31:31.985Z,6.55
2022-12-25T08:34:00.356Z,6.57
2022-12-25T08:36:28.203Z,6.63
2022-12-25T08:39:02.660Z,6.67
2022-12-25T08:41:31.081Z,6.99
2022-12-25T08:43:59.113Z,7.66
2022-12-25T08:46:26.819Z,8.22
2022-12-25T08:48:54.953Z,8.86
2022-12-25T08:51:23.470Z,9.76
2022-12-25T08:53:54.862Z,10.34
2022-12-25T08:56:22.554Z,11.19
2022-12-25T08:58:50.142Z,11.43
2022-12-25T09:01:17.918Z,12.10
2022-12-25T09:03:45.765Z,12.17
2022-12-25T09:06:15.998Z,12.49
2022-12-25T09:08:49.171Z,12.30
2022-12-25T09:11:18.836Z,12.33
2022-12-25T09:13:47.191Z,12.87
2022-12-25T09:16:18.689Z,12.87
2022-12-25T09:18:49.010Z,12.57
2022-12-25T09:21:18.099Z,12.31
2022-12-25T09:23:45.784Z,11.88
2022-12-25T09:26:15.820Z,11.97
2022-12-25T09:28:48.742Z,12.19
2022-12-25T09:31:18.899Z,12.29
2022-12-25T09:33:50.554Z,13.60
2022-12-25T09:36:18.725Z,14.64
2022-12-25T09:38:46.387Z,14.73
2022-12-25T09:41:16.955Z,15.43
2022-12-25T09:44:12.498Z,15.12
2022-12-25T09:46:48.369Z,16.06
2022-12-25T09:49:21.993Z,16.03
2022-12-25T09:51:54.484Z,16.51
2022-12-25T09:54:45.787Z,16.44
2022-12-25T09:57:15.316Z,16.29
2022-12-25T09:59:48.720Z,16.45
2022-12-25T10:02:50.771Z,16.53
2022-12-25T10:05:56.427Z,16.04
2022-12-25T10:08:50.876Z,15.43
2022-12-25T10:11:21.294Z,14.61
2022-12-25T10:14:10.938Z,13.94
2022-12-25T10:17:13.812Z,13.72
2022-12-25T10:19:59.295Z,13.50
2022-12-25T10:22:34.708Z,13.35
2022-12-25T10:25:06.957Z,13.08
2022-12-25T10:27:43.745Z,13.00
2022-12-25T10:30:15.918Z,12.74
2022-12-25T10:32:45.601Z,12.65
2022-12-25T10:35:24.699Z,12.61
2022-12-25T10:38:03.776Z,12.72
2022-12-25T10:40:53.058Z,12.72
2022-12-25T10:43:34.711Z,12.64
2022-12-25T10:46:02.557Z,12.65
2022-12-25T10:48:33.246Z,12.58
2022-12-25T10:51:08.885Z,12.59
2022-12-25T10:53:42.527Z,12.65
2022-12-25T10:56:21.278Z,12.68
2022-12-25T10:58:48.926Z,12.52
2022-12-25T11:01:17.031Z,12.50
2022-12-25T11:03:53.321Z,12.56
2022-12-25T11:06:26.677Z,12.62
2022-12-25T11:08:57.595Z,12.51
2022-12-25T11:11:28.999Z,12.49
2022-12-25T11:14:02.775Z,12.47
2022-12-25T11:16:40.889Z,12.42
2022-12-25T11:19:25.393Z,12.47
2022-12-25T11:21:56.451Z,12.52
2022-12-25T11:24:28.268Z,12.52
2022-12-25T11:26:59.165Z,12.54
2022-12-25T11:29:41.379Z,12.60
2022-12-25T11:32:31.205Z,12.61
2022-12-25T11:35:00.312Z,12.74
2022-12-25T11:37:27.903Z,12.67
2022-12-25T11:39:57.696Z,12.65
2022-12-25T11:42:27.426Z,12.69
2022-12-25T11:45:02.569Z,12.71
2022-12-25T11:47:45.244Z,12.71
2022-12-25T11:50:31.945Z,12.77
2022-12-25T11:53:03.299Z,12.89
2022-12-25T11:55:44.338Z,12.92
2022-12-25T11:58:33.429Z,12.87
2022-12-25T12:01:05.708Z,12.97
2022-12-25T12:03:42.558Z,13.03
2022-12-25T12:06:29.675Z,13.20
2022-12-25T12:09:23.121Z,13.25
2022-12-25T12:12:13.049Z,13.51
2022-12-25T12:14:50.569Z,13.69
2022-12-25T12:17:21.045Z,13.72
2022-12-25T12:19:48.957Z,13.69
2022-12-25T12:22:28.683Z,13.65
2022-12-25T12:25:07.358Z,13.76
2022-12-25T12:27:43.022Z,13.49
2022-12-25T12:30:24.581Z,13.29
2022-12-25T12:33:01.274Z,13.15
2022-12-25T12:35:32.390Z,13.03
2022-12-25T12:38:12.948Z,12.98
2022-12-25T12:41:03.366Z,12.95
2022-12-25T12:43:55.674Z,13.46
2022-12-25T12:46:37.743Z,14.11
2022-12-25T12:49:33.715Z,14.31
2022-12-25T12:52:08.767Z,14.23
2022-12-25T12:54:57.020Z,14.13
2022-12-25T12:57:32.603Z,14.02
2022-12-25T13:00:11.321Z,13.88
2022-12-25T13:02:51.249Z,13.84
2022-12-25T13:05:21.927Z,13.57
2022-12-25T13:08:01.572Z,13.31
2022-12-25T13:10:40.730Z,13.03
2022-12-25T13:13:15.292Z,12.96
2022-12-25T13:15:48.211Z,12.81
2022-12-25T13:18:16.125Z,12.75
2022-12-25T13:20:56.193Z,12.67
2022-12-25T13:23:36.392Z,12.58
2022-12-25T13:26:14.164Z,12.53
2022-12-25T13:28:42.470Z,12.41
2022-12-25T13:31:21.253Z,12.35
2022-12-25T13:34:01.909Z,12.26
2022-12-25T13:36:37.017Z,12.18
2022-12-25T13:39:10.860Z,12.36
2022-12-25T13:42:05.623Z,12.39
2022-12-25T13:44:54.835Z,12.26
2022-12-25T13:47:26.913Z,12.08
2022-12-25T13:49:56.914Z,12.03
2022-12-25T13:52:36.397Z,11.90
2022-12-25T13:55:13.215Z,11.77
2022-12-25T13:58:02.292Z,11.71
2022-12-25T14:00:37.678Z,11.70
2022-12-25T14:03:16.159Z,11.71
2022-12-25T14:05:43.861Z,11.69
2022-12-25T14:08:23.032Z,11.62
2022-12-25T14:10:52.469Z,11.56
2022-12-25T14:13:23.414Z,11.52
2022-12-25T14:15:53.410Z,11.50
2022-12-25T14:18:26.033Z,11.46
2022-12-25T14:21:05.607Z,11.40
2022-12-25T14:23:46.819Z,11.39
2022-12-25T14:26:25.175Z,11.32
2022-12-25T14:29:17.594Z,11.25
2022-12-25T14:31:48.286Z,11.11
2022-12-25T14:34:19.706Z,11.02
2022-12-25T14:36:48.453Z,10.97
2022-12-25T14:39:38.585Z,10.94
2022-12-25T14:42:20.608Z,10.93
2022-12-25T14:45:26.782Z,10.91
2022-12-25T14:48:00.011Z,10.89
2022-12-25T14:50:27.531Z,10.83
2022-12-25T14:52:55.607Z,10.80
2022-12-25T14:55:26.776Z,10.74
2022-12-25T14:57:58.635Z,10.71
2022-12-25T15:00:40.636Z,10.66
2022-12-25T15:03:24.898Z,10.53
2022-12-25T15:06:03.019Z,10.43
2022-12-25T15:08:32.936Z,10.25
2022-12-25T15:11:02.860Z,10.08
2022-12-25T15:13:32.338Z,9.87
2022-12-25T15:16:00.119Z,9.74
2022-12-25T15:18:33.182Z,9.51
2022-12-25T15:21:01.079Z,9.43
2022-12-25T15:23:28.888Z,9.37
2022-12-25T15:25:59.174Z,9.28
2022-12-25T15:28:26.822Z,9.35
2022-12-25T15:30:54.583Z,9.28
2022-12-25T15:33:22.186Z,9.34
2022-12-25T15:35:49.861Z,9.35
2022-12-25T15:38:19.878Z,9.35
2022-12-25T15:40:48.321Z,9.32
2022-12-25T15:43:40.577Z,9.37
2022-12-25T15:46:06.705Z,9.30
2022-12-25T15:48:34.392Z,9.26
2022-12-25T15:51:02.036Z,9.17
2022-12-25T15:53:29.705Z,9.17
2022-12-25T15:55:57.393Z,9.22
2022-12-25T15:58:27.500Z,9.17
2022-12-25T16:00:57.471Z,9.10
2022-12-25T16:03:27.501Z,9.11
2022-12-25T16:05:55.910Z,9.19
2022-12-25T16:08:28.464Z,9.12
2022-12-25T16:10:57.235Z,9.04
2022-12-25T16:13:27.283Z,8.96
2022-12-25T16:15:55.289Z,8.90
2022-12-25T16:18:23.994Z,8.86
2022-12-25T16:20:53.053Z,8.86
2022-12-25T16:23:23.451Z,8.83
2022-12-25T16:25:51.634Z,8.79
2022-12-25T16:28:19.537Z,8.79
2022-12-25T16:30:47.253Z,8.80
2022-12-25T16:33:15.407Z,8.80
2022-12-25T16:35:44.144Z,8.76
2022-12-25T16:38:11.766Z,8.76
2022-12-25T16:40:39.366Z,8.80
2022-12-25T16:43:07.053Z,8.78
2022-12-25T16:45:39.961Z,8.79
2022-12-25T16:48:08.798Z,8.76
2022-12-25T16:50:39.500Z,8.75
2022-12-25T16:53:09.304Z,8.77
2022-12-25T16:55:38.772Z,8.75
2022-12-25T16:58:07.441Z,8.71
2022-12-25T17:00:37.804Z,8.65
2022-12-25T17:03:05.790Z,8.57
2022-12-25T17:05:34.503Z,8.59
2022-12-25T17:08:02.115Z,8.54
2022-12-25T17:10:29.758Z,8.47
2022-12-25T17:12:57.319Z,8.45
2022-12-25T17:15:25.176Z,8.40
2022-12-25T17:17:52.776Z,8.39
2022-12-25T17:20:22.612Z,8.45
2022-12-25T17:22:50.926Z,8.41
2022-12-25T17:25:20.888Z,8.41
2022-12-25T17:27:51.123Z,8.36
2022-12-25T17:30:18.799Z,8.34
2022-12-25T17:32:47.124Z,8.47
2022-12-25T17:35:14.788Z,8.48
2022-12-25T17:37:42.405Z,8.54
2022-12-25T17:40:13.787Z,8.51
2022-12-25T17:42:41.582Z,8.47
2022-12-25T17:45:09.874Z,8.38
2022-12-25T17:47:37.547Z,8.27
2022-12-25T17:50:05.412Z,8.13
2022-12-25T17:52:34.128Z,7.95
2022-12-25T17:55:01.716Z,7.79
2022-12-25T17:57:29.319Z,7.63
2022-12-25T17:59:56.879Z,7.62
2022-12-25T18:02:27.049Z,7.44
2022-12-25T18:04:57.169Z,7.32
2022-12-25T18:07:24.778Z,7.20
2022-12-25T18:09:52.449Z,7.10
2022-12-25T18:12:29.411Z,6.98
2022-12-25T18:14:57.258Z,6.92
2022-12-25T18:17:24.859Z,6.84
2022-12-25T18:19:52.452Z,6.96
2022-12-25T18:22:20.064Z,7.04
2022-12-25T18:24:47.629Z,7.02
2022-12-25T18:27:15.476Z,7.05
2022-12-25T18:29:43.151Z,7.03
2022-12-25T18:32:16.267Z,7.01
2022-12-25T18:34:43.942Z,7.01
2022-12-25T18:37:11.540Z,7.04
2022-12-25T18:39:41.694Z,7.06
2022-12-25T18:42:26.878Z,7.19
2022-12-25T18:44:54.523Z,7.22
2022-12-25T18:47:22.139Z,7.22
2022-12-25T18:49:49.810Z,7.23
2022-12-25T18:52:48.031Z,7.32
2022-12-25T18:55:12.971Z,7.34
2022-12-25T18:57:42.786Z,7.40
2022-12-25T19:00:11.154Z,7.44
2022-12-25T19:02:40.102Z,7.45
2022-12-25T19:05:11.074Z,7.51
2022-12-25T19:07:38.724Z,7.49
2022-12-25T19:10:07.190Z,7.58
2022-12-25T19:12:34.887Z,7.60
2022-12-25T19:15:05.278Z,7.63
2022-12-25T19:17:34.303Z,7.65
2022-12-25T19:20:10.227Z,7.69
2022-12-25T19:22:37.856Z,7.68
2022-12-25T19:25:06.024Z,7.71
2022-12-25T19:27:36.182Z,7.70
2022-12-25T19:30:04.094Z,7.76
2022-12-25T19:32:31.739Z,7.78
2022-12-25T19:35:04.275Z,7.80
2022-12-25T19:37:34.810Z,7.80
2022-12-25T19:40:02.445Z,7.82
2022-12-25T19:42:30.079Z,7.83
2022-12-25T19:45:03.136Z,7.88
2022-12-25T19:47:35.119Z,7.93
2022-12-25T19:50:03.764Z,8.21
2022-12-25T19:52:33.872Z,8.35
2022-12-25T19:55:01.729Z,8.41
2022-12-25T19:57:29.323Z,8.46
2022-12-25T19:59:56.907Z,8.40
2022-12-25T20:02:25.165Z,8.38
2022-12-25T20:04:59.252Z,8.31
2022-12-25T20:07:26.980Z,8.31
2022-12-25T20:10:02.155Z,8.26
2022-12-25T20:12:29.763Z,8.21
2022-12-25T20:14:57.338Z,8.20
2022-12-25T20:17:27.618Z,8.20
2022-12-25T20:19:55.198Z,8.17
2022-12-25T20:22:22.813Z,8.16
2022-12-25T20:24:55.060Z,8.16
2022-12-25T20:27:22.819Z,8.16
2022-12-25T20:29:50.401Z,8.17
2022-12-25T20:32:18.083Z,8.27
2022-12-25T20:34:45.709Z,8.32
2022-12-25T20:37:13.311Z,8.36
2022-12-25T20:39:43.417Z,8.38
2022-12-25T20:42:12.058Z,8.47
2022-12-25T20:44:42.415Z,8.53
2022-12-25T20:47:10.049Z,8.64
2022-12-25T20:49:39.807Z,8.60
2022-12-25T20:52:07.767Z,8.56
2022-12-25T20:54:38.178Z,8.57
2022-12-25T20:57:10.798Z,8.60
2022-12-25T20:59:43.753Z,8.58
2022-12-25T21:02:35.096Z,8.57
2022-12-25T21:05:01.245Z,8.58
2022-12-25T21:07:30.351Z,8.53
2022-12-25T21:09:59.205Z,8.50
2022-12-25T21:12:27.137Z,8.54
2022-12-25T21:14:54.837Z,8.56
2022-12-25T21:17:22.519Z,8.59
2022-12-25T21:19:50.103Z,8.64
2022-12-25T21:22:17.716Z,8.72
2022-12-25T21:24:45.288Z,8.69
2022-12-25T21:27:12.867Z,8.71
2022-12-25T21:29:40.472Z,8.68
2022-12-25T21:32:25.640Z,8.62
2022-12-25T21:34:53.211Z,8.63
2022-12-25T21:37:20.809Z,8.68
2022-12-25T21:39:50.961Z,8.73
2022-12-25T21:42:20.049Z,8.76
2022-12-25T21:44:50.211Z,8.75
2022-12-25T21:47:17.992Z,8.83
2022-12-25T21:50:03.193Z,8.81
2022-12-25T21:52:30.795Z,8.83
2022-12-25T21:55:00.499Z,8.89
2022-12-25T21:57:28.153Z,8.93
2022-12-25T21:59:55.699Z,8.89
2022-12-25T22:02:23.626Z,8.87
2022-12-25T22:04:51.420Z,8.82
2022-12-25T22:07:18.033Z,8.82
2022-12-25T22:09:52.492Z,8.82
2022-12-25T22:12:39.581Z,8.82
2022-12-25T22:15:11.661Z,8.90
2022-12-25T22:18:01.548Z,8.85
2022-12-25T22:20:34.763Z,8.87
2022-12-25T22:23:05.549Z,8.84
2022-12-25T22:25:35.603Z,8.84
2022-12-25T22:28:03.223Z,8.86
2022-12-25T22:30:33.280Z,8.85
2022-12-25T22:33:02.869Z,8.82
2022-12-25T22:35:32.551Z,8.82
2022-12-25T22:38:00.204Z,8.80
2022-12-25T22:40:28.127Z,8.80
2022-12-25T22:42:56.474Z,8.74
2022-12-25T22:45:24.801Z,8.70
2022-12-25T22:47:52.498Z,8.63
2022-12-25T22:50:20.120Z,8.58
2022-12-25T22:52:47.688Z,8.56
2022-12-25T22:55:18.576Z,8.56
2022-12-25T22:57:46.334Z,8.60
2022-12-25T23:00:14.679Z,8.57
2022-12-25T23:02:42.459Z,8.53
2022-12-25T23:05:17.307Z,8.49
2022-12-25T23:07:45.009Z,8.46
2022-12-25T23:10:12.634Z,8.43
2022-12-25T23:12:57.699Z,8.38
2022-12-25T23:15:25.877Z,8.38
2022-12-25T23:18:13.519Z,8.32
2022-12-25T23:20:57.913Z,8.32
2022-12-25T23:23:48.573Z,8.30
2022-12-25T23:26:20.382Z,8.27
2022-12-25T23:29:05.571Z,8.23
2022-12-25T23:31:36.382Z,8.21
2022-12-25T23:34:05.646Z,8.21
2022-12-25T23:36:38.312Z,8.17
2022-12-25T23:39:10.493Z,8.15
2022-12-25T23:41:42.440Z,8.11
2022-12-25T23:44:12.450Z,8.05
2022-12-25T23:46:41.339Z,8.04
2022-12-25T23:49:21.265Z,7.98
2022-12-25T23:51:52.011Z,7.98
2022-12-25T23:54:23.274Z,7.97
2022-12-25T23:56:51.269Z,8.03
2022-12-25T23:59:19.105Z,8.01
